sensor_id;sensor_type;location;lat;lon;timestamp;pressure;altitude;pressure_sealevel;temperature;humidity
37764;BME280;23602;51.084;7.090;2023-04-10T00:00:09;100755.94;;;5.06;100.00
37764;BME280;23602;51.084;7.090;2023-04-10T00:02:36;100752.47;;;5.05;100.00
37764;BME280;23602;51.084;7.090;2023-04-10T00:05:02;100754.06;;;4.98;100.00
37764;BME280;23602;51.084;7.090;2023-04-10T00:07:27;100747.28;;;5.04;100.00
37764;BME280;23602;51.084;7.090;2023-04-10T00:09:53;100749.28;;;5.02;100.00
37764;BME280;23602;51.084;7.090;2023-04-10T00:12:18;100749.78;;;5.05;100.00
37764;BME280;23602;51.084;7.090;2023-04-10T00:14:43;100754.94;;;5.07;100.00
37764;BME280;23602;51.084;7.090;2023-04-10T00:17:09;100747.94;;;5.06;100.00
37764;BME280;23602;51.084;7.090;2023-04-10T00:19:34;100737.16;;;5.07;100.00
37764;BME280;23602;51.084;7.090;2023-04-10T00:22:00;100734.97;;;5.11;100.00
37764;BME280;23602;51.084;7.090;2023-04-10T00:24:25;100727.00;;;5.11;100.00
37764;BME280;23602;51.084;7.090;2023-04-10T00:26:51;100732.84;;;5.15;100.00
37764;BME280;23602;51.084;7.090;2023-04-10T00:29:16;100734.00;;;5.12;100.00
37764;BME280;23602;51.084;7.090;2023-04-10T00:31:41;100731.50;;;5.10;100.00
37764;BME280;23602;51.084;7.090;2023-04-10T00:34:07;100725.66;;;5.07;100.00
37764;BME280;23602;51.084;7.090;2023-04-10T00:36:33;100724.66;;;5.08;100.00
37764;BME280;23602;51.084;7.090;2023-04-10T00:38:58;100724.31;;;5.11;100.00
37764;BME280;23602;51.084;7.090;2023-04-10T00:41:24;100723.34;;;5.12;100.00
37764;BME280;23602;51.084;7.090;2023-04-10T00:43:49;100714.81;;;5.08;100.00
37764;BME280;23602;51.084;7.090;2023-04-10T00:46:14;100719.34;;;5.08;100.00
37764;BME280;23602;51.084;7.090;2023-04-10T00:48:40;100716.50;;;5.09;100.00
37764;BME280;23602;51.084;7.090;2023-04-10T00:51:05;100712.16;;;5.08;100.00
37764;BME280;23602;51.084;7.090;2023-04-10T00:53:31;100713.31;;;5.06;100.00
37764;BME280;23602;51.084;7.090;2023-04-10T00:55:56;100706.03;;;5.08;100.00
37764;BME280;23602;51.084;7.090;2023-04-10T00:58:22;100707.00;;;5.07;100.00
37764;BME280;23602;51.084;7.090;2023-04-10T01:00:47;100696.53;;;5.05;100.00
37764;BME280;23602;51.084;7.090;2023-04-10T01:03:14;100699.72;;;5.17;100.00
37764;BME280;23602;51.084;7.090;2023-04-10T01:05:48;100697.69;;;5.11;100.00
37764;BME280;23602;51.084;7.090;2023-04-10T01:11:09;100704.16;;;5.00;100.00
37764;BME280;23602;51.084;7.090;2023-04-10T01:13:40;100699.66;;;5.01;100.00
37764;BME280;23602;51.084;7.090;2023-04-10T01:16:10;100699.66;;;5.01;100.00
37764;BME280;23602;51.084;7.090;2023-04-10T01:18:38;100697.81;;;5.01;100.00
37764;BME280;23602;51.084;7.090;2023-04-10T01:21:05;100701.63;;;4.99;100.00
37764;BME280;23602;51.084;7.090;2023-04-10T01:23:41;100697.69;;;5.03;100.00
37764;BME280;23602;51.084;7.090;2023-04-10T01:26:12;100693.69;;;5.07;100.00
37764;BME280;23602;51.084;7.090;2023-04-10T01:28:55;100691.19;;;5.13;100.00
37764;BME280;23602;51.084;7.090;2023-04-10T01:31:44;100689.69;;;5.11;100.00
37764;BME280;23602;51.084;7.090;2023-04-10T01:34:16;100677.41;;;5.18;100.00
37764;BME280;23602;51.084;7.090;2023-04-10T01:36:47;100671.44;;;5.16;100.00
37764;BME280;23602;51.084;7.090;2023-04-10T01:39:15;100669.22;;;5.11;100.00
37764;BME280;23602;51.084;7.090;2023-04-10T01:41:42;100667.22;;;5.13;100.00
37764;BME280;23602;51.084;7.090;2023-04-10T01:44:08;100662.25;;;5.10;100.00
37764;BME280;23602;51.084;7.090;2023-04-10T01:46:35;100670.72;;;5.14;100.00
37764;BME280;23602;51.084;7.090;2023-04-10T01:49:02;100668.41;;;5.19;100.00
37764;BME280;23602;51.084;7.090;2023-04-10T01:51:29;100666.09;;;5.24;100.00
37764;BME280;23602;51.084;7.090;2023-04-10T01:53:55;100654.47;;;5.25;100.00
37764;BME280;23602;51.084;7.090;2023-04-10T01:56:20;100659.78;;;5.25;100.00
37764;BME280;23602;51.084;7.090;2023-04-10T01:58:46;100648.47;;;5.31;100.00
37764;BME280;23602;51.084;7.090;2023-04-10T02:01:17;100642.34;;;5.39;100.00
37764;BME280;23602;51.084;7.090;2023-04-10T02:03:42;100642.00;;;5.34;100.00
37764;BME280;23602;51.084;7.090;2023-04-10T02:08:39;100638.16;;;5.28;100.00
37764;BME280;23602;51.084;7.090;2023-04-10T02:11:10;100631.00;;;5.29;100.00
37764;BME280;23602;51.084;7.090;2023-04-10T02:13:37;100632.50;;;5.31;100.00
37764;BME280;23602;51.084;7.090;2023-04-10T02:16:05;100628.81;;;5.32;100.00
37764;BME280;23602;51.084;7.090;2023-04-10T02:18:32;100625.16;;;5.33;100.00
37764;BME280;23602;51.084;7.090;2023-04-10T02:20:59;100626.66;;;5.36;100.00
37764;BME280;23602;51.084;7.090;2023-04-10T02:23:25;100620.00;;;5.40;100.00
37764;BME280;23602;51.084;7.090;2023-04-10T02:25:50;100623.50;;;5.40;100.00
37764;BME280;23602;51.084;7.090;2023-04-10T02:28:16;100614.34;;;5.43;100.00
37764;BME280;23602;51.084;7.090;2023-04-10T02:30:41;100609.53;;;5.46;100.00
37764;BME280;23602;51.084;7.090;2023-04-10T02:33:06;100615.00;;;5.45;100.00
37764;BME280;23602;51.084;7.090;2023-04-10T02:35:32;100623.84;;;5.45;100.00
37764;BME280;23602;51.084;7.090;2023-04-10T02:37:57;100618.50;;;5.45;100.00
37764;BME280;23602;51.084;7.090;2023-04-10T02:40:23;100615.19;;;5.43;100.00
37764;BME280;23602;51.084;7.090;2023-04-10T02:42:48;100621.84;;;5.47;100.00
37764;BME280;23602;51.084;7.090;2023-04-10T02:45:14;100621.19;;;5.45;100.00
37764;BME280;23602;51.084;7.090;2023-04-10T02:47:39;100623.84;;;5.45;100.00
37764;BME280;23602;51.084;7.090;2023-04-10T02:50:04;100621.34;;;5.44;100.00
37764;BME280;23602;51.084;7.090;2023-04-10T02:52:30;100617.84;;;5.43;100.00
37764;BME280;23602;51.084;7.090;2023-04-10T02:54:55;100615.69;;;5.55;100.00
37764;BME280;23602;51.084;7.090;2023-04-10T02:57:20;100613.34;;;5.52;100.00
37764;BME280;23602;51.084;7.090;2023-04-10T02:59:51;100617.16;;;5.49;100.00
37764;BME280;23602;51.084;7.090;2023-04-10T03:02:17;100618.84;;;5.42;100.00
37764;BME280;23602;51.084;7.090;2023-04-10T03:04:42;100615.69;;;5.39;100.00
37764;BME280;23602;51.084;7.090;2023-04-10T03:07:08;100606.84;;;5.38;100.00
37764;BME280;23602;51.084;7.090;2023-04-10T03:09:36;100601.19;;;5.41;100.00
37764;BME280;23602;51.084;7.090;2023-04-10T03:12:01;100599.19;;;5.43;100.00
37764;BME280;23602;51.084;7.090;2023-04-10T03:14:27;100599.69;;;5.39;100.00
37764;BME280;23602;51.084;7.090;2023-04-10T03:16:52;100593.84;;;5.35;100.00
37764;BME280;23602;51.084;7.090;2023-04-10T03:19:17;100598.53;;;5.33;100.00
37764;BME280;23602;51.084;7.090;2023-04-10T03:21:44;100601.69;;;5.29;100.00
37764;BME280;23602;51.084;7.090;2023-04-10T03:24:09;100591.19;;;5.35;100.00
37764;BME280;23602;51.084;7.090;2023-04-10T03:26:35;100586.84;;;5.42;100.00
37764;BME280;23602;51.084;7.090;2023-04-10T03:29:00;100589.19;;;5.45;100.00
37764;BME280;23602;51.084;7.090;2023-04-10T03:31:26;100577.53;;;5.38;100.00
37764;BME280;23602;51.084;7.090;2023-04-10T03:33:51;100582.53;;;5.33;100.00
37764;BME280;23602;51.084;7.090;2023-04-10T03:36:16;100575.84;;;5.37;100.00
37764;BME280;23602;51.084;7.090;2023-04-10T03:38:42;100570.84;;;5.34;100.00
37764;BME280;23602;51.084;7.090;2023-04-10T03:41:07;100557.88;;;5.31;100.00
37764;BME280;23602;51.084;7.090;2023-04-10T03:43:32;100564.19;;;5.30;100.00
37764;BME280;23602;51.084;7.090;2023-04-10T03:45:58;100555.22;;;5.31;100.00
37764;BME280;23602;51.084;7.090;2023-04-10T03:48:23;100541.41;;;5.44;100.00
37764;BME280;23602;51.084;7.090;2023-04-10T03:50:55;100546.41;;;5.39;100.00
37764;BME280;23602;51.084;7.090;2023-04-10T03:53:23;100551.22;;;5.35;100.00
37764;BME280;23602;51.084;7.090;2023-04-10T03:55:48;100542.88;;;5.30;100.00
37764;BME280;23602;51.084;7.090;2023-04-10T03:58:22;100538.88;;;5.50;100.00
37764;BME280;23602;51.084;7.090;2023-04-10T04:01:01;100538.22;;;5.48;100.00
37764;BME280;23602;51.084;7.090;2023-04-10T04:03:30;100542.53;;;5.57;100.00
37764;BME280;23602;51.084;7.090;2023-04-10T04:05:56;100531.19;;;5.80;100.00
37764;BME280;23602;51.084;7.090;2023-04-10T04:08:23;100532.84;;;5.72;100.00
37764;BME280;23602;51.084;7.090;2023-04-10T04:10:48;100527.53;;;5.64;100.00
37764;BME280;23602;51.084;7.090;2023-04-10T04:13:13;100526.19;;;5.77;100.00
37764;BME280;23602;51.084;7.090;2023-04-10T04:15:39;100534.72;;;5.64;100.00
37764;BME280;23602;51.084;7.090;2023-04-10T04:18:05;100528.88;;;5.68;100.00
37764;BME280;23602;51.084;7.090;2023-04-10T04:20:30;100532.19;;;5.70;100.00
37764;BME280;23602;51.084;7.090;2023-04-10T04:22:55;100521.53;;;5.70;100.00
37764;BME280;23602;51.084;7.090;2023-04-10T04:25:21;100524.22;;;5.62;100.00
37764;BME280;23602;51.084;7.090;2023-04-10T04:27:46;100523.53;;;5.60;100.00
37764;BME280;23602;51.084;7.090;2023-04-10T04:30:11;100523.22;;;5.63;100.00
37764;BME280;23602;51.084;7.090;2023-04-10T04:32:36;100535.72;;;5.63;100.00
37764;BME280;23602;51.084;7.090;2023-04-10T04:35:02;100535.38;;;5.58;100.00
37764;BME280;23602;51.084;7.090;2023-04-10T04:37:27;100528.22;;;5.58;100.00
37764;BME280;23602;51.084;7.090;2023-04-10T04:39:53;100524.22;;;5.62;100.00
37764;BME280;23602;51.084;7.090;2023-04-10T04:42:18;100527.91;;;5.61;100.00
37764;BME280;23602;51.084;7.090;2023-04-10T04:44:43;100531.22;;;5.55;100.00
37764;BME280;23602;51.084;7.090;2023-04-10T04:47:08;100535.06;;;5.61;100.00
37764;BME280;23602;51.084;7.090;2023-04-10T04:49:34;100527.56;;;5.48;100.00
37764;BME280;23602;51.084;7.090;2023-04-10T04:51:59;100527.06;;;5.61;100.00
37764;BME280;23602;51.084;7.090;2023-04-10T04:54:25;100522.19;;;5.81;100.00
37764;BME280;23602;51.084;7.090;2023-04-10T04:56:50;100534.19;;;5.77;100.00
37764;BME280;23602;51.084;7.090;2023-04-10T04:59:15;100524.53;;;5.67;100.00
37764;BME280;23602;51.084;7.090;2023-04-10T05:01:41;100526.53;;;5.65;100.00
37764;BME280;23602;51.084;7.090;2023-04-10T05:04:06;100520.22;;;5.66;100.00
37764;BME280;23602;51.084;7.090;2023-04-10T05:06:31;100515.88;;;5.65;100.00
37764;BME280;23602;51.084;7.090;2023-04-10T05:08:57;100522.56;;;5.61;100.00
37764;BME280;23602;51.084;7.090;2023-04-10T05:11:22;100505.19;;;5.73;100.00
37764;BME280;23602;51.084;7.090;2023-04-10T05:13:47;100511.38;;;5.74;100.00
37764;BME280;23602;51.084;7.090;2023-04-10T05:16:13;100512.53;;;5.88;100.00
37764;BME280;23602;51.084;7.090;2023-04-10T05:18:38;100512.19;;;5.91;100.00
37764;BME280;23602;51.084;7.090;2023-04-10T05:21:04;100520.50;;;5.96;100.00
37764;BME280;23602;51.084;7.090;2023-04-10T05:23:29;100518.38;;;5.91;100.00
37764;BME280;23602;51.084;7.090;2023-04-10T05:25:55;100519.19;;;5.92;100.00
37764;BME280;23602;51.084;7.090;2023-04-10T05:28:20;100522.53;;;5.94;100.00
37764;BME280;23602;51.084;7.090;2023-04-10T05:30:46;100519.84;;;5.94;100.00
37764;BME280;23602;51.084;7.090;2023-04-10T05:33:12;100517.38;;;5.92;100.00
37764;BME280;23602;51.084;7.090;2023-04-10T05:35:37;100519.66;;;6.03;100.00
37764;BME280;23602;51.084;7.090;2023-04-10T05:38:02;100524.78;;;6.13;100.00
37764;BME280;23602;51.084;7.090;2023-04-10T05:40:28;100529.00;;;6.07;100.00
37764;BME280;23602;51.084;7.090;2023-04-10T05:42:53;100524.22;;;6.33;100.00
37764;BME280;23602;51.084;7.090;2023-04-10T05:45:19;100521.41;;;6.66;100.00
37764;BME280;23602;51.084;7.090;2023-04-10T05:47:45;100517.56;;;6.68;100.00
37764;BME280;23602;51.084;7.090;2023-04-10T05:50:10;100515.53;;;6.70;100.00
37764;BME280;23602;51.084;7.090;2023-04-10T05:52:35;100523.38;;;6.72;100.00
37764;BME280;23602;51.084;7.090;2023-04-10T05:55:01;100520.66;;;6.80;100.00
37764;BME280;23602;51.084;7.090;2023-04-10T05:57:27;100525.81;;;6.81;100.00
37764;BME280;23602;51.084;7.090;2023-04-10T05:59:53;100516.25;;;6.87;100.00
37764;BME280;23602;51.084;7.090;2023-04-10T06:02:18;100508.56;;;6.92;100.00
37764;BME280;23602;51.084;7.090;2023-04-10T06:04:44;100516.41;;;6.93;100.00
37764;BME280;23602;51.084;7.090;2023-04-10T06:07:09;100516.53;;;7.00;100.00
37764;BME280;23602;51.084;7.090;2023-04-10T06:09:35;100514.88;;;7.22;100.00
37764;BME280;23602;51.084;7.090;2023-04-10T06:12:00;100514.91;;;7.36;100.00
37764;BME280;23602;51.084;7.090;2023-04-10T06:14:26;100511.75;;;7.33;100.00
37764;BME280;23602;51.084;7.090;2023-04-10T06:16:51;100508.38;;;7.39;100.00
37764;BME280;23602;51.084;7.090;2023-04-10T06:19:16;100509.09;;;7.33;100.00
37764;BME280;23602;51.084;7.090;2023-04-10T06:21:42;100508.38;;;7.39;100.00
37764;BME280;23602;51.084;7.090;2023-04-10T06:24:07;100506.28;;;7.49;100.00
37764;BME280;23602;51.084;7.090;2023-04-10T06:26:32;100501.84;;;7.41;100.00
37764;BME280;23602;51.084;7.090;2023-04-10T06:28:58;100508.66;;;7.44;100.00
37764;BME280;23602;51.084;7.090;2023-04-10T06:31:24;100498.47;;;7.47;100.00
37764;BME280;23602;51.084;7.090;2023-04-10T06:33:49;100498.28;;;7.63;100.00
37764;BME280;23602;51.084;7.090;2023-04-10T06:36:15;100488.91;;;7.68;100.00
37764;BME280;23602;51.084;7.090;2023-04-10T06:38:40;100492.94;;;7.63;100.00
37764;BME280;23602;51.084;7.090;2023-04-10T06:41:06;100487.94;;;7.60;100.00
37764;BME280;23602;51.084;7.090;2023-04-10T06:43:34;100486.66;;;7.56;100.00
37764;BME280;23602;51.084;7.090;2023-04-10T06:46:01;100493.06;;;7.70;100.00
37764;BME280;23602;51.084;7.090;2023-04-10T06:48:27;100498.00;;;7.73;100.00
37764;BME280;23602;51.084;7.090;2023-04-10T06:50:53;100500.44;;;7.83;100.00
37764;BME280;23602;51.084;7.090;2023-04-10T06:53:18;100503.75;;;7.99;100.00
37764;BME280;23602;51.084;7.090;2023-04-10T06:55:43;100512.53;;;8.08;100.00
37764;BME280;23602;51.084;7.090;2023-04-10T06:58:09;100510.81;;;8.30;100.00
37764;BME280;23602;51.084;7.090;2023-04-10T07:00:35;100520.75;;;8.50;100.00
37764;BME280;23602;51.084;7.090;2023-04-10T07:03:00;100515.66;;;8.55;100.00
37764;BME280;23602;51.084;7.090;2023-04-10T07:05:26;100504.00;;;8.63;100.00
37764;BME280;23602;51.084;7.090;2023-04-10T07:07:51;100503.72;;;8.72;100.00
37764;BME280;23602;51.084;7.090;2023-04-10T07:10:17;100502.00;;;8.86;100.00
37764;BME280;23602;51.084;7.090;2023-04-10T07:12:42;100494.13;;;8.99;100.00
37764;BME280;23602;51.084;7.090;2023-04-10T07:15:08;100504.31;;;9.10;100.00
37764;BME280;23602;51.084;7.090;2023-04-10T07:17:33;100494.31;;;9.19;100.00
37764;BME280;23602;51.084;7.090;2023-04-10T07:19:58;100497.31;;;9.30;100.00
37764;BME280;23602;51.084;7.090;2023-04-10T07:22:23;100494.34;;;9.46;100.00
37764;BME280;23602;51.084;7.090;2023-04-10T07:24:49;100479.59;;;9.64;100.00
37764;BME280;23602;51.084;7.090;2023-04-10T07:27:14;100481.75;;;9.75;100.00
37764;BME280;23602;51.084;7.090;2023-04-10T07:29:41;100483.31;;;9.90;100.00
37764;BME280;23602;51.084;7.090;2023-04-10T07:32:06;100471.84;;;10.03;100.00
37764;BME280;23602;51.084;7.090;2023-04-10T07:34:31;100470.09;;;10.23;100.00
37764;BME280;23602;51.084;7.090;2023-04-10T07:36:57;100470.78;;;10.38;100.00
37764;BME280;23602;51.084;7.090;2023-04-10T07:39:22;100460.13;;;10.58;100.00
37764;BME280;23602;51.084;7.090;2023-04-10T07:41:47;100453.53;;;10.73;100.00
37764;BME280;23602;51.084;7.090;2023-04-10T07:44:13;100457.94;;;10.88;100.00
37764;BME280;23602;51.084;7.090;2023-04-10T07:46:38;100458.78;;;11.01;100.00
37764;BME280;23602;51.084;7.090;2023-04-10T07:49:04;100455.69;;;11.24;100.00
37764;BME280;23602;51.084;7.090;2023-04-10T07:51:29;100449.69;;;11.41;100.00
37764;BME280;23602;51.084;7.090;2023-04-10T07:53:54;100449.47;;;11.50;100.00
37764;BME280;23602;51.084;7.090;2023-04-10T07:56:20;100441.22;;;11.51;97.27
37764;BME280;23602;51.084;7.090;2023-04-10T07:58:46;100441.00;;;11.53;100.00
37764;BME280;23602;51.084;7.090;2023-04-10T08:01:12;100434.56;;;11.60;100.00
37764;BME280;23602;51.084;7.090;2023-04-10T08:03:41;100440.41;;;11.77;100.00
37764;BME280;23602;51.084;7.090;2023-04-10T08:06:07;100441.81;;;11.86;92.76
37764;BME280;23602;51.084;7.090;2023-04-10T08:08:34;100428.97;;;11.94;97.32
37764;BME280;23602;51.084;7.090;2023-04-10T08:10:59;100430.94;;;12.19;97.72
37764;BME280;23602;51.084;7.090;2023-04-10T08:13:25;100426.47;;;12.44;100.00
37764;BME280;23602;51.084;7.090;2023-04-10T08:15:50;100426.16;;;12.65;100.00
37764;BME280;23602;51.084;7.090;2023-04-10T08:18:15;100418.34;;;12.88;81.33
37764;BME280;23602;51.084;7.090;2023-04-10T08:20:41;100419.59;;;13.17;74.40
37764;BME280;23602;51.084;7.090;2023-04-10T08:23:06;100418.13;;;13.46;90.15
37764;BME280;23602;51.084;7.090;2023-04-10T08:25:31;100417.97;;;14.02;100.00
37764;BME280;23602;51.084;7.090;2023-04-10T08:27:57;100410.31;;;14.17;81.85
37764;BME280;23602;51.084;7.090;2023-04-10T08:30:24;100406.34;;;14.37;84.04
37764;BME280;23602;51.084;7.090;2023-04-10T08:32:49;100414.19;;;14.57;86.82
37764;BME280;23602;51.084;7.090;2023-04-10T08:35:15;100402.13;;;14.71;77.36
37764;BME280;23602;51.084;7.090;2023-04-10T08:37:40;100393.13;;;15.00;68.47
37764;BME280;23602;51.084;7.090;2023-04-10T08:40:05;100392.34;;;15.11;63.98
37764;BME280;23602;51.084;7.090;2023-04-10T08:42:31;100396.56;;;14.96;62.50
37764;BME280;23602;51.084;7.090;2023-04-10T08:44:56;100391.66;;;15.16;61.08
37764;BME280;23602;51.084;7.090;2023-04-10T08:47:22;100392.25;;;15.41;61.76
37764;BME280;23602;51.084;7.090;2023-04-10T08:52:20;100380.94;;;15.21;56.09
37764;BME280;23602;51.084;7.090;2023-04-10T08:54:47;100373.41;;;15.23;57.07
37764;BME280;23602;51.084;7.090;2023-04-10T08:57:14;100378.81;;;15.00;55.29
37764;BME280;23602;51.084;7.090;2023-04-10T08:59:44;100367.63;;;14.96;65.93
37764;BME280;23602;51.084;7.090;2023-04-10T09:02:10;100362.72;;;15.40;60.85
37764;BME280;23602;51.084;7.090;2023-04-10T09:04:35;100363.69;;;15.68;64.46
37764;BME280;23602;51.084;7.090;2023-04-10T09:07:00;100361.19;;;15.67;63.85
37764;BME280;23602;51.084;7.090;2023-04-10T09:09:26;100352.50;;;15.53;63.63
37764;BME280;23602;51.084;7.090;2023-04-10T09:14:24;100352.69;;;15.75;64.87
37764;BME280;23602;51.084;7.090;2023-04-10T09:16:50;100347.03;;;15.76;63.03
37764;BME280;23602;51.084;7.090;2023-04-10T09:19:28;100339.00;;;15.81;59.04
37764;BME280;23602;51.084;7.090;2023-04-10T09:21:53;100333.16;;;15.73;52.46
37764;BME280;23602;51.084;7.090;2023-04-10T09:24:19;100318.09;;;15.65;51.57
37764;BME280;23602;51.084;7.090;2023-04-10T09:26:44;100327.91;;;15.95;54.02
37764;BME280;23602;51.084;7.090;2023-04-10T09:29:10;100332.00;;;15.57;53.27
37764;BME280;23602;51.084;7.090;2023-04-10T09:31:36;100318.34;;;16.04;54.26
37764;BME280;23602;51.084;7.090;2023-04-10T09:34:38;100320.84;;;16.50;54.53
37764;BME280;23602;51.084;7.090;2023-04-10T09:36:54;100313.69;;;16.16;53.02
37764;BME280;23602;51.084;7.090;2023-04-10T09:39:20;100326.53;;;16.20;50.83
37764;BME280;23602;51.084;7.090;2023-04-10T09:41:52;100327.22;;;15.88;48.98
37764;BME280;23602;51.084;7.090;2023-04-10T09:44:26;100320.34;;;16.36;51.56
37764;BME280;23602;51.084;7.090;2023-04-10T09:46:52;100333.59;;;15.81;48.67
37764;BME280;23602;51.084;7.090;2023-04-10T09:49:18;100334.00;;;16.13;50.40
37764;BME280;23602;51.084;7.090;2023-04-10T09:51:44;100330.34;;;16.36;54.16
37764;BME280;23602;51.084;7.090;2023-04-10T09:54:11;100318.03;;;16.45;56.76
37764;BME280;23602;51.084;7.090;2023-04-10T09:56:37;100313.50;;;16.34;50.23
37764;BME280;23602;51.084;7.090;2023-04-10T09:59:03;100307.94;;;16.12;55.25
37764;BME280;23602;51.084;7.090;2023-04-10T10:01:30;100301.72;;;16.12;51.80
37764;BME280;23602;51.084;7.090;2023-04-10T10:04:02;100302.09;;;16.49;54.64
37764;BME280;23602;51.084;7.090;2023-04-10T10:06:28;100306.28;;;16.84;56.57
37764;BME280;23602;51.084;7.090;2023-04-10T10:08:55;100303.00;;;16.82;53.65
37764;BME280;23602;51.084;7.090;2023-04-10T10:11:22;100297.81;;;16.97;55.21
37764;BME280;23602;51.084;7.090;2023-04-10T10:13:49;100296.09;;;16.91;47.96
37764;BME280;23602;51.084;7.090;2023-04-10T10:18:46;100274.03;;;16.71;49.44
37764;BME280;23602;51.084;7.090;2023-04-10T10:21:12;100278.63;;;16.71;48.97
37764;BME280;23602;51.084;7.090;2023-04-10T10:23:39;100271.72;;;16.63;46.77
37764;BME280;23602;51.084;7.090;2023-04-10T10:26:05;100272.81;;;16.62;47.04
37764;BME280;23602;51.084;7.090;2023-04-10T10:28:30;100263.03;;;16.78;45.50
37764;BME280;23602;51.084;7.090;2023-04-10T10:30:57;100274.53;;;17.18;56.71
37764;BME280;23602;51.084;7.090;2023-04-10T10:33:22;100272.44;;;17.08;46.21
37764;BME280;23602;51.084;7.090;2023-04-10T10:35:49;100253.81;;;16.79;47.26
37764;BME280;23602;51.084;7.090;2023-04-10T10:38:15;100241.31;;;16.94;43.96
37764;BME280;23602;51.084;7.090;2023-04-10T10:40:53;100238.47;;;17.06;45.65
37764;BME280;23602;51.084;7.090;2023-04-10T10:43:26;100237.44;;;16.90;42.68
37764;BME280;23602;51.084;7.090;2023-04-10T10:46:01;100232.25;;;17.05;47.21
37764;BME280;23602;51.084;7.090;2023-04-10T10:48:27;100227.59;;;17.23;47.59
37764;BME280;23602;51.084;7.090;2023-04-10T10:50:53;100213.59;;;17.31;47.05
37764;BME280;23602;51.084;7.090;2023-04-10T10:55:58;100203.44;;;17.04;48.84
37764;BME280;23602;51.084;7.090;2023-04-10T10:58:50;100189.72;;;17.16;47.46
37764;BME280;23602;51.084;7.090;2023-04-10T11:01:16;100197.88;;;16.94;43.78
37764;BME280;23602;51.084;7.090;2023-04-10T11:03:42;100176.84;;;17.06;46.36
37764;BME280;23602;51.084;7.090;2023-04-10T11:06:11;100177.25;;;17.15;49.07
37764;BME280;23602;51.084;7.090;2023-04-10T11:08:43;100175.94;;;17.18;46.95
37764;BME280;23602;51.084;7.090;2023-04-10T11:13:40;100152.78;;;17.37;47.85
37764;BME280;23602;51.084;7.090;2023-04-10T11:16:06;100152.56;;;17.60;53.90
37764;BME280;23602;51.084;7.090;2023-04-10T11:23:38;100138.53;;;17.95;47.00
37764;BME280;23602;51.084;7.090;2023-04-10T11:31:44;100122.41;;;17.61;44.89
37764;BME280;23602;51.084;7.090;2023-04-10T11:34:10;100107.94;;;17.56;49.34
37764;BME280;23602;51.084;7.090;2023-04-10T11:36:39;100097.09;;;17.56;46.77
37764;BME280;23602;51.084;7.090;2023-04-10T11:39:06;100092.41;;;17.30;46.46
37764;BME280;23602;51.084;7.090;2023-04-10T11:41:52;100092.78;;;17.38;48.33
37764;BME280;23602;51.084;7.090;2023-04-10T11:44:25;100086.44;;;17.54;47.15
37764;BME280;23602;51.084;7.090;2023-04-10T11:46:51;100087.34;;;17.38;44.16
37764;BME280;23602;51.084;7.090;2023-04-10T11:49:23;100084.94;;;17.63;49.91
37764;BME280;23602;51.084;7.090;2023-04-10T11:51:50;100085.22;;;17.67;47.34
37764;BME280;23602;51.084;7.090;2023-04-10T11:54:16;100083.66;;;17.71;49.11
37764;BME280;23602;51.084;7.090;2023-04-10T11:56:55;100082.84;;;17.49;47.57
37764;BME280;23602;51.084;7.090;2023-04-10T11:59:21;100078.94;;;17.40;45.05
37764;BME280;23602;51.084;7.090;2023-04-10T12:01:46;100084.97;;;17.20;48.63
37764;BME280;23602;51.084;7.090;2023-04-10T12:04:12;100077.22;;;17.07;45.33
37764;BME280;23602;51.084;7.090;2023-04-10T12:06:41;100068.13;;;17.18;51.63
37764;BME280;23602;51.084;7.090;2023-04-10T12:09:14;100070.78;;;17.13;51.87
37764;BME280;23602;51.084;7.090;2023-04-10T12:11:47;100069.06;;;17.07;46.28
37764;BME280;23602;51.084;7.090;2023-04-10T12:14:12;100062.31;;;17.10;46.94
37764;BME280;23602;51.084;7.090;2023-04-10T12:16:37;100052.50;;;17.08;49.14
37764;BME280;23602;51.084;7.090;2023-04-10T12:19:03;100056.31;;;17.08;46.53
37764;BME280;23602;51.084;7.090;2023-04-10T12:21:28;100049.91;;;17.19;47.89
37764;BME280;23602;51.084;7.090;2023-04-10T12:23:53;100044.78;;;16.95;42.35
37764;BME280;23602;51.084;7.090;2023-04-10T12:26:19;100039.31;;;17.17;48.39
37764;BME280;23602;51.084;7.090;2023-04-10T12:28:54;100032.38;;;17.04;45.46
37764;BME280;23602;51.084;7.090;2023-04-10T12:31:33;100026.44;;;16.86;44.34
37764;BME280;23602;51.084;7.090;2023-04-10T12:33:59;100016.25;;;16.71;43.55
37764;BME280;23602;51.084;7.090;2023-04-10T12:36:25;100019.63;;;16.83;47.97
37764;BME280;23602;51.084;7.090;2023-04-10T12:38:53;100014.28;;;16.88;46.80
37764;BME280;23602;51.084;7.090;2023-04-10T12:41:22;100014.16;;;17.00;46.61
37764;BME280;23602;51.084;7.090;2023-04-10T12:43:49;100016.47;;;16.91;43.48
37764;BME280;23602;51.084;7.090;2023-04-10T12:46:23;100015.16;;;16.94;50.94
37764;BME280;23602;51.084;7.090;2023-04-10T12:48:49;100015.94;;;17.16;49.23
37764;BME280;23602;51.084;7.090;2023-04-10T12:51:14;99997.41;;;17.35;46.38
37764;BME280;23602;51.084;7.090;2023-04-10T12:53:43;100002.94;;;17.72;49.22
37764;BME280;23602;51.084;7.090;2023-04-10T12:56:09;99997.19;;;17.68;44.50
37764;BME280;23602;51.084;7.090;2023-04-10T12:58:36;99996.75;;;17.81;44.83
37764;BME280;23602;51.084;7.090;2023-04-10T13:01:03;99991.78;;;17.73;45.79
37764;BME280;23602;51.084;7.090;2023-04-10T13:03:28;99994.97;;;17.65;43.66
37764;BME280;23602;51.084;7.090;2023-04-10T13:05:54;99993.09;;;17.65;45.25
37764;BME280;23602;51.084;7.090;2023-04-10T13:08:20;99982.81;;;17.73;43.65
37764;BME280;23602;51.084;7.090;2023-04-10T13:10:46;99989.19;;;17.88;43.94
37764;BME280;23602;51.084;7.090;2023-04-10T13:13:12;99982.47;;;18.01;43.35
37764;BME280;23602;51.084;7.090;2023-04-10T13:15:38;99972.22;;;18.13;45.01